Terminal Aerodrome Forecast
Issued by NWS North Platte, NE

Home | Current Version | Previous Version | Text Only | Print | Product List | Glossary On
Versions: 1 2 3 4 5 6 7 8 9 10 11 12 13 14 15 16 17 18 19 20 21 22 23 24 25 26 27 28
000
FTUS43 KLBF 252320
TAFLBF
TAF
KLBF 252320Z 2600/2624 VRB04KT P6SM SCT250
     FM260500 11005KT P6SM BKN030
     FM260800 11004KT 1/2SM FG BKN008
     FM261100 13003KT 1SM BR OVC003
      TEMPO 2611/2613 1/4SM FG
     FM261600 13005KT 2SM BR OVC008
     FM261700 14005KT P6SM OVC025
     FM261800 14004KT P6SM OVC080=

USA.gov is the U.S. government's official web portal to all federal, state and local government web resources and services.